createdAt,value
2022-12-16T00:02:33.521Z,58.93
2022-12-16T00:05:42.674Z,53.23
2022-12-16T00:08:47.195Z,54.90
2022-12-16T00:11:50.062Z,53.53
2022-12-16T00:14:55.080Z,55.10
2022-12-16T00:17:57.757Z,52.17
2022-12-16T00:21:00.699Z,52.50
2022-12-16T00:24:03.448Z,52.93
2022-12-16T00:27:06.112Z,51.73
2022-12-16T00:30:11.496Z,54.17
2022-12-16T00:33:14.164Z,52.33
2022-12-16T00:36:16.886Z,56.50
2022-12-16T00:39:19.615Z,55.57
2022-12-16T00:42:22.290Z,49.23
2022-12-16T00:45:26.348Z,57.13
2022-12-16T00:48:29.132Z,51.63
2022-12-16T00:51:31.799Z,46.70
2022-12-16T00:54:34.509Z,49.10
2022-12-16T00:57:37.186Z,50.03
2022-12-16T01:00:41.571Z,48.47
2022-12-16T01:03:44.720Z,47.10
2022-12-16T01:06:48.023Z,52.87
2022-12-16T01:09:50.696Z,49.63
2022-12-16T01:12:54.875Z,48.33
2022-12-16T01:16:02.473Z,50.57
2022-12-16T01:19:05.932Z,48.27
2022-12-16T01:22:09.139Z,40.23
2022-12-16T01:25:14.108Z,44.00
2022-12-16T01:28:16.785Z,42.67
2022-12-16T01:31:22.099Z,44.20
2022-12-16T01:34:25.105Z,43.97
2022-12-16T01:37:27.809Z,44.23
2022-12-16T01:40:30.949Z,42.27
2022-12-16T01:43:36.138Z,40.63
2022-12-16T01:46:40.994Z,40.83
2022-12-16T01:49:48.861Z,38.50
2022-12-16T01:52:57.344Z,39.33
2022-12-16T01:56:01.954Z,35.77
2022-12-16T01:59:04.993Z,38.67
2022-12-16T02:02:10.307Z,32.00
2022-12-16T02:05:21.480Z,32.63
2022-12-16T02:08:24.252Z,35.23
2022-12-16T02:11:42.863Z,32.80
2022-12-16T02:15:00.414Z,33.37
2022-12-16T02:18:14.322Z,30.87
2022-12-16T02:21:31.811Z,31.57
2022-12-16T02:25:03.957Z,32.37
2022-12-16T02:28:12.673Z,35.33
2022-12-16T02:31:26.939Z,36.07
2022-12-16T02:34:38.161Z,32.77
2022-12-16T02:37:49.138Z,31.03
2022-12-16T02:40:57.493Z,33.93
2022-12-16T02:44:05.420Z,32.23
2022-12-16T02:47:09.621Z,28.10
2022-12-16T02:50:19.718Z,30.73
2022-12-16T02:53:22.809Z,30.30
2022-12-16T02:56:48.573Z,27.63
2022-12-16T02:59:58.051Z,25.97
2022-12-16T03:03:07.573Z,26.73
2022-12-16T03:06:14.096Z,28.97
2022-12-16T03:09:21.994Z,30.37
2022-12-16T03:12:25.784Z,31.93
2022-12-16T03:15:33.714Z,27.70
2022-12-16T03:18:42.144Z,27.03
2022-12-16T03:21:50.351Z,27.37
2022-12-16T03:24:53.553Z,32.87
2022-12-16T03:28:01.933Z,33.57
2022-12-16T03:31:15.352Z,28.60
2022-12-16T03:34:28.594Z,26.87
2022-12-16T03:37:37.530Z,29.90
2022-12-16T03:40:44.121Z,27.50
2022-12-16T03:43:48.428Z,30.43
2022-12-16T03:46:51.449Z,28.70
2022-12-16T03:49:55.648Z,31.30
2022-12-16T03:52:58.984Z,30.27
2022-12-16T03:56:02.129Z,29.47
2022-12-16T03:59:04.910Z,31.13
2022-12-16T04:02:07.692Z,30.00
2022-12-16T04:05:12.510Z,26.37
2022-12-16T04:08:15.381Z,31.20
2022-12-16T04:11:35.539Z,30.50
2022-12-16T04:14:55.811Z,29.70
2022-12-16T04:18:16.108Z,30.77
2022-12-16T04:21:37.538Z,28.03
2022-12-16T04:24:40.347Z,28.23
2022-12-16T04:27:46.827Z,31.67
2022-12-16T04:30:49.580Z,32.17
2022-12-16T04:34:09.759Z,33.00
2022-12-16T04:37:31.157Z,27.73
2022-12-16T04:40:51.341Z,32.80
2022-12-16T04:44:11.594Z,30.90
2022-12-16T04:47:31.938Z,30.20
2022-12-16T04:50:52.119Z,31.57
2022-12-16T04:54:13.708Z,29.20
2022-12-16T04:57:33.811Z,27.63
2022-12-16T05:00:53.980Z,28.83
2022-12-16T05:04:15.856Z,27.63
2022-12-16T05:07:38.537Z,28.23
2022-12-16T05:11:05.773Z,28.43
2022-12-16T05:14:26.160Z,31.67
2022-12-16T05:17:46.315Z,28.80
2022-12-16T05:21:06.573Z,28.27
2022-12-16T05:24:27.158Z,29.07
2022-12-16T05:27:49.739Z,29.67
2022-12-16T05:31:10.505Z,28.67
2022-12-16T05:34:31.384Z,28.10
2022-12-16T05:37:52.437Z,32.63
2022-12-16T05:41:12.487Z,32.53
2022-12-16T05:44:33.944Z,28.77
2022-12-16T05:47:54.120Z,31.27
2022-12-16T05:51:14.484Z,31.77
2022-12-16T05:54:39.958Z,27.90
2022-12-16T05:58:00.372Z,34.13
2022-12-16T06:01:22.824Z,33.00
2022-12-16T06:04:42.923Z,33.63
2022-12-16T06:08:09.574Z,33.13
2022-12-16T06:11:29.565Z,29.33
2022-12-16T06:14:49.792Z,33.87
2022-12-16T06:18:11.195Z,37.07
2022-12-16T06:21:31.525Z,38.80
2022-12-16T06:24:51.817Z,31.70
2022-12-16T06:28:12.484Z,32.20
2022-12-16T06:31:32.636Z,33.03
2022-12-16T06:34:54.015Z,32.27
2022-12-16T06:38:14.215Z,37.63
2022-12-16T06:41:34.304Z,43.53
2022-12-16T06:44:54.527Z,30.60
2022-12-16T06:48:14.592Z,33.20
2022-12-16T06:51:36.001Z,32.17
2022-12-16T06:55:04.517Z,33.27
2022-12-16T06:58:24.917Z,35.83
2022-12-16T07:01:45.150Z,29.60
2022-12-16T07:05:06.552Z,32.37
2022-12-16T07:08:34.253Z,33.53
2022-12-16T07:11:56.702Z,32.67
2022-12-16T07:15:27.400Z,34.93
2022-12-16T07:18:48.782Z,43.50
2022-12-16T07:22:09.440Z,42.83
2022-12-16T07:25:33.480Z,42.77
2022-12-16T07:28:53.835Z,37.60
2022-12-16T07:32:14.162Z,33.13
2022-12-16T07:35:37.652Z,32.00
2022-12-16T07:39:06.217Z,36.60
2022-12-16T07:42:30.641Z,35.83
2022-12-16T07:45:50.919Z,30.07
2022-12-16T07:49:11.183Z,35.30
2022-12-16T07:52:33.790Z,33.67
2022-12-16T07:56:00.036Z,41.00
2022-12-16T07:59:28.962Z,32.10
2022-12-16T08:02:52.744Z,37.63
2022-12-16T08:06:13.049Z,36.27
2022-12-16T08:09:36.410Z,166.50
2022-12-16T08:12:57.204Z,43.83
2022-12-16T08:16:19.176Z,33.87
2022-12-16T08:19:39.422Z,33.47
2022-12-16T08:23:00.083Z,40.97
2022-12-16T08:26:20.815Z,37.07
2022-12-16T08:29:45.140Z,35.23
2022-12-16T08:33:16.587Z,36.83
2022-12-16T08:36:39.404Z,36.67
2022-12-16T08:40:26.153Z,34.47
2022-12-16T08:43:39.977Z,36.37
2022-12-16T08:47:00.153Z,36.43
2022-12-16T08:50:24.377Z,32.70
2022-12-16T08:53:44.538Z,35.33
2022-12-16T08:57:04.790Z,35.50
2022-12-16T09:00:26.536Z,34.67
2022-12-16T09:03:46.828Z,31.67
2022-12-16T09:07:09.648Z,31.10
2022-12-16T09:10:32.271Z,32.60
2022-12-16T09:14:05.648Z,33.60
2022-12-16T09:17:29.441Z,30.70
2022-12-16T09:21:16.602Z,32.93
2022-12-16T09:24:38.107Z,32.17
2022-12-16T09:28:06.723Z,32.70
2022-12-16T09:31:26.928Z,35.47
2022-12-16T09:34:47.207Z,44.37
2022-12-16T09:38:08.032Z,35.63
2022-12-16T09:41:46.201Z,33.93
2022-12-16T09:45:22.995Z,30.80
2022-12-16T09:48:52.412Z,36.17
2022-12-16T09:52:18.635Z,37.30
2022-12-16T09:55:44.184Z,37.20
2022-12-16T09:59:11.135Z,33.03
2022-12-16T10:02:34.161Z,34.47
2022-12-16T10:06:06.655Z,39.13
2022-12-16T10:09:35.053Z,35.93
2022-12-16T10:13:05.808Z,32.67
2022-12-16T10:16:33.774Z,34.03
2022-12-16T10:20:10.154Z,31.00
2022-12-16T10:23:38.963Z,34.00
2022-12-16T10:27:10.841Z,31.03
2022-12-16T10:30:33.553Z,28.17
2022-12-16T10:34:04.197Z,29.67
2022-12-16T10:37:24.391Z,28.20
2022-12-16T10:40:54.753Z,28.03
2022-12-16T10:44:19.775Z,28.53
2022-12-16T10:47:45.436Z,30.40
2022-12-16T10:51:06.853Z,34.47
2022-12-16T10:54:44.108Z,39.37
2022-12-16T10:58:18.021Z,51.47
2022-12-16T11:01:50.911Z,53.57
2022-12-16T11:05:11.385Z,47.60
2022-12-16T11:08:46.011Z,30.70
2022-12-16T11:12:06.252Z,31.83
2022-12-16T11:15:42.503Z,53.17
2022-12-16T11:19:15.161Z,33.00
2022-12-16T11:22:42.670Z,25.70
2022-12-16T11:26:04.106Z,28.87
2022-12-16T11:29:36.382Z,29.93
2022-12-16T11:32:59.883Z,30.70
2022-12-16T11:36:28.739Z,26.03
2022-12-16T11:39:50.879Z,38.07
2022-12-16T11:43:17.232Z,27.37
2022-12-16T11:46:43.847Z,29.13
2022-12-16T11:50:04.223Z,31.83
2022-12-16T11:53:44.517Z,31.90
2022-12-16T11:57:05.474Z,31.63
2022-12-16T12:00:33.780Z,27.70
2022-12-16T12:04:07.574Z,30.53
2022-12-16T12:07:45.762Z,30.77
2022-12-16T12:11:36.296Z,28.10
2022-12-16T12:15:05.593Z,28.17
2022-12-16T12:18:38.196Z,31.93
2022-12-16T12:22:08.780Z,28.43
2022-12-16T12:25:39.145Z,31.20
2022-12-16T12:29:06.585Z,27.30
2022-12-16T12:32:43.907Z,25.70
2022-12-16T12:36:16.658Z,25.03
2022-12-16T12:39:44.433Z,27.43
2022-12-16T12:43:08.566Z,27.33
2022-12-16T12:46:37.505Z,27.97
2022-12-16T12:50:02.441Z,29.87
2022-12-16T12:53:33.561Z,26.97
2022-12-16T12:57:07.664Z,30.77
2022-12-16T13:00:35.351Z,29.17
2022-12-16T13:04:16.381Z,29.87
2022-12-16T13:07:37.335Z,27.77
2022-12-16T13:10:58.933Z,29.50
2022-12-16T13:14:19.824Z,31.27
2022-12-16T13:17:41.747Z,35.87
2022-12-16T13:21:08.595Z,29.60
2022-12-16T13:24:43.697Z,27.03
2022-12-16T13:28:11.562Z,28.73
2022-12-16T13:31:32.725Z,25.87
2022-12-16T13:34:52.981Z,26.83
2022-12-16T13:38:15.816Z,30.67
2022-12-16T13:42:23.086Z,33.27
2022-12-16T13:46:02.942Z,31.87
2022-12-16T13:50:04.027Z,25.83
2022-12-16T13:53:34.771Z,27.33
2022-12-16T13:57:07.879Z,34.07
2022-12-16T14:00:36.961Z,30.30
2022-12-16T14:04:05.915Z,27.07
2022-12-16T14:07:29.159Z,25.67
2022-12-16T14:10:51.877Z,30.30
2022-12-16T14:14:19.848Z,28.20
2022-12-16T14:17:47.308Z,26.73
2022-12-16T14:21:14.628Z,37.73
2022-12-16T14:24:42.857Z,35.37
2022-12-16T14:28:03.127Z,29.40
2022-12-16T14:31:37.588Z,26.73
2022-12-16T14:35:02.363Z,30.23
2022-12-16T14:38:43.533Z,32.30
2022-12-16T14:42:14.269Z,32.83
2022-12-16T14:45:46.877Z,44.40
2022-12-16T14:49:10.139Z,31.60
2022-12-16T14:52:38.774Z,31.37
2022-12-16T14:56:00.186Z,30.50
2022-12-16T14:59:43.164Z,29.77
2022-12-16T15:03:12.320Z,31.87
2022-12-16T15:06:42.599Z,29.70
2022-12-16T15:10:09.054Z,40.53
2022-12-16T15:13:36.210Z,27.57
2022-12-16T15:16:57.326Z,39.77
2022-12-16T15:20:36.988Z,60.83
2022-12-16T15:24:04.133Z,41.17
2022-12-16T15:27:45.402Z,29.77
2022-12-16T15:31:13.186Z,36.63
2022-12-16T15:38:52.896Z,29.57
2022-12-16T15:42:13.964Z,27.77
2022-12-16T15:45:36.771Z,29.53
2022-12-16T15:49:02.504Z,25.47
2022-12-16T15:52:47.305Z,37.33
2022-12-16T15:56:15.434Z,28.30
2022-12-16T15:59:43.946Z,30.23
2022-12-16T16:03:07.035Z,27.07
2022-12-16T16:06:46.105Z,26.93
2022-12-16T16:10:06.483Z,25.90
2022-12-16T16:13:27.279Z,25.33
2022-12-16T16:16:48.744Z,24.27
2022-12-16T16:20:09.015Z,21.90
2022-12-16T16:23:41.303Z,34.67
2022-12-16T16:27:07.629Z,29.60
2022-12-16T16:30:29.241Z,24.77
2022-12-16T16:33:49.920Z,29.37
2022-12-16T16:37:14.634Z,38.07
2022-12-16T16:40:42.292Z,24.67
2022-12-16T16:44:09.043Z,24.83
2022-12-16T16:47:34.854Z,29.30
2022-12-16T16:51:04.799Z,68.23
2022-12-16T16:54:24.914Z,64.07
2022-12-16T16:57:53.632Z,32.20
2022-12-16T17:01:14.037Z,29.77
2022-12-16T17:04:34.451Z,27.03
2022-12-16T17:08:09.628Z,30.33
2022-12-16T17:11:36.513Z,29.93
2022-12-16T17:14:58.197Z,30.80
2022-12-16T17:18:18.251Z,33.40
2022-12-16T17:21:38.451Z,34.23
2022-12-16T17:24:58.607Z,33.07
2022-12-16T17:28:15.353Z,43.83
2022-12-16T17:31:36.847Z,45.03
2022-12-16T17:34:57.105Z,37.27
2022-12-16T17:38:21.078Z,39.53
2022-12-16T17:41:47.037Z,42.53
2022-12-16T17:45:07.423Z,39.47
2022-12-16T17:48:31.953Z,53.13
2022-12-16T17:51:55.158Z,52.07
2022-12-16T17:55:15.870Z,53.03
2022-12-16T17:58:35.952Z,52.63
2022-12-16T18:01:57.049Z,66.17
2022-12-16T18:05:18.813Z,55.13
2022-12-16T18:08:38.941Z,61.57
2022-12-16T18:12:07.524Z,61.47
2022-12-16T18:15:29.019Z,52.23
2022-12-16T18:18:49.255Z,61.63
2022-12-16T18:22:10.634Z,61.30
2022-12-16T18:25:30.848Z,52.67
2022-12-16T18:28:50.945Z,49.73
2022-12-16T18:32:11.177Z,54.00
2022-12-16T18:35:32.009Z,46.37
2022-12-16T18:38:56.801Z,47.23
2022-12-16T18:42:17.048Z,35.40
2022-12-16T18:45:40.284Z,36.73
2022-12-16T18:49:04.710Z,43.80
2022-12-16T18:52:24.852Z,43.17
2022-12-16T18:55:50.350Z,48.77
2022-12-16T18:59:15.143Z,51.10
2022-12-16T19:02:35.708Z,43.17
2022-12-16T19:05:56.061Z,37.93
2022-12-16T19:09:16.167Z,39.97
2022-12-16T19:12:37.631Z,43.23
2022-12-16T19:15:54.498Z,38.33
2022-12-16T19:19:23.014Z,45.53
2022-12-16T19:22:43.145Z,48.10
2022-12-16T19:26:14.919Z,43.50
2022-12-16T19:29:36.693Z,43.73
2022-12-16T19:32:59.895Z,47.37
2022-12-16T19:36:20.004Z,34.20
2022-12-16T19:39:40.168Z,41.77
2022-12-16T19:43:00.825Z,39.40
2022-12-16T19:46:33.040Z,33.87
2022-12-16T19:49:59.897Z,39.13
2022-12-16T19:53:26.161Z,39.03
2022-12-16T19:56:46.541Z,37.27
2022-12-16T20:00:10.043Z,38.10
2022-12-16T20:03:35.341Z,41.00
2022-12-16T20:06:56.847Z,34.60
2022-12-16T20:10:17.012Z,38.60
2022-12-16T20:13:37.207Z,36.10
2022-12-16T20:17:00.332Z,34.17
2022-12-16T20:20:22.709Z,43.47
2022-12-16T20:23:42.977Z,37.23
2022-12-16T20:27:03.248Z,41.97
2022-12-16T20:30:38.964Z,56.97
2022-12-16T20:37:43.784Z,54.27
2022-12-16T20:41:13.953Z,57.57
2022-12-16T20:44:39.883Z,57.83
2022-12-16T20:48:11.744Z,50.70
2022-12-16T20:51:37.951Z,51.20
2022-12-16T20:54:59.350Z,55.47
2022-12-16T20:58:19.779Z,69.37
2022-12-16T21:01:47.919Z,58.53
2022-12-16T21:05:16.264Z,66.17
2022-12-16T21:08:37.054Z,73.30
2022-12-16T21:11:59.046Z,73.33
2022-12-16T21:15:22.114Z,54.07
2022-12-16T21:18:42.683Z,43.23
2022-12-16T21:22:06.408Z,48.93
2022-12-16T21:25:29.129Z,47.10
2022-12-16T21:28:56.853Z,48.17
2022-12-16T21:32:18.295Z,50.80
2022-12-16T21:35:38.859Z,55.07
2022-12-16T21:39:01.085Z,63.93
2022-12-16T21:42:24.441Z,58.73
2022-12-16T21:45:45.930Z,41.33
2022-12-16T21:49:06.091Z,53.03
2022-12-16T21:52:22.742Z,55.17
2022-12-16T21:55:42.993Z,79.93
2022-12-16T21:59:03.127Z,83.20
2022-12-16T22:02:30.084Z,66.33
2022-12-16T22:05:46.783Z,83.30
2022-12-16T22:09:07.102Z,76.87
2022-12-16T22:12:31.106Z,47.13
2022-12-16T22:15:51.741Z,46.93
2022-12-16T22:19:14.093Z,40.03
2022-12-16T22:22:42.588Z,39.20
2022-12-16T22:26:04.106Z,36.73
2022-12-16T22:29:33.451Z,36.07
2022-12-16T22:32:53.234Z,37.17
2022-12-16T22:36:33.269Z,35.63
2022-12-16T22:39:56.235Z,34.60
2022-12-16T22:43:25.018Z,37.93
2022-12-16T22:46:45.251Z,39.23
2022-12-16T22:50:08.361Z,48.00
2022-12-16T22:53:33.244Z,40.90
2022-12-16T22:56:56.622Z,43.17
2022-12-16T23:00:17.011Z,41.80
2022-12-16T23:03:40.454Z,50.10
2022-12-16T23:07:00.826Z,55.13
2022-12-16T23:10:23.191Z,54.60
2022-12-16T23:13:59.146Z,48.57
2022-12-16T23:17:20.274Z,43.77
2022-12-16T23:20:40.766Z,47.60
2022-12-16T23:24:06.279Z,45.60
2022-12-16T23:27:27.719Z,38.43
2022-12-16T23:30:51.062Z,39.00
2022-12-16T23:34:19.241Z,39.33
2022-12-16T23:37:39.598Z,33.37
2022-12-16T23:41:00.047Z,38.30
2022-12-16T23:44:31.146Z,35.00
2022-12-16T23:48:02.003Z,33.70
2022-12-16T23:51:22.400Z,41.80
2022-12-16T23:54:47.812Z,46.00
2022-12-16T23:58:16.366Z,28.67
